sensor_id;sensor_type;location;lat;lon;timestamp;temperature;humidity
54158;DHT22;40065;49.894;10.358;2023-04-03T00:00:20;2.70;99.90
54158;DHT22;40065;49.894;10.358;2023-04-03T00:05:22;2.80;99.90
54158;DHT22;40065;49.894;10.358;2023-04-03T00:10:23;2.80;99.90
54158;DHT22;40065;49.894;10.358;2023-04-03T00:15:25;2.80;99.90
54158;DHT22;40065;49.894;10.358;2023-04-03T00:20:27;2.90;99.90
54158;DHT22;40065;49.894;10.358;2023-04-03T00:25:29;2.90;99.90
54158;DHT22;40065;49.894;10.358;2023-04-03T00:30:31;2.90;99.90
54158;DHT22;40065;49.894;10.358;2023-04-03T00:35:34;3.00;99.90
54158;DHT22;40065;49.894;10.358;2023-04-03T00:40:44;2.90;99.90
54158;DHT22;40065;49.894;10.358;2023-04-03T00:45:48;3.00;99.90
54158;DHT22;40065;49.894;10.358;2023-04-03T00:50:52;3.00;99.90
54158;DHT22;40065;49.894;10.358;2023-04-03T00:55:55;3.00;99.90
54158;DHT22;40065;49.894;10.358;2023-04-03T01:00:58;3.10;99.90
54158;DHT22;40065;49.894;10.358;2023-04-03T01:06:00;3.10;99.90
54158;DHT22;40065;49.894;10.358;2023-04-03T01:11:03;3.20;99.90
54158;DHT22;40065;49.894;10.358;2023-04-03T01:16:06;3.30;99.90
54158;DHT22;40065;49.894;10.358;2023-04-03T01:21:30;3.30;99.90
54158;DHT22;40065;49.894;10.358;2023-04-03T01:26:37;3.40;99.90
54158;DHT22;40065;49.894;10.358;2023-04-03T01:31:55;3.30;99.90
54158;DHT22;40065;49.894;10.358;2023-04-03T01:36:58;3.50;99.90
54158;DHT22;40065;49.894;10.358;2023-04-03T01:42:00;3.40;99.90
54158;DHT22;40065;49.894;10.358;2023-04-03T01:47:06;3.50;99.90
54158;DHT22;40065;49.894;10.358;2023-04-03T01:52:09;3.60;99.90
54158;DHT22;40065;49.894;10.358;2023-04-03T01:57:11;3.60;99.90
54158;DHT22;40065;49.894;10.358;2023-04-03T02:02:15;3.70;99.90
54158;DHT22;40065;49.894;10.358;2023-04-03T02:07:17;3.80;99.90
54158;DHT22;40065;49.894;10.358;2023-04-03T02:12:19;3.80;99.90
54158;DHT22;40065;49.894;10.358;2023-04-03T02:17:21;3.80;99.90
54158;DHT22;40065;49.894;10.358;2023-04-03T02:22:23;3.80;99.90
54158;DHT22;40065;49.894;10.358;2023-04-03T02:27:25;3.90;99.90
54158;DHT22;40065;49.894;10.358;2023-04-03T02:32:27;3.90;99.90
54158;DHT22;40065;49.894;10.358;2023-04-03T02:37:30;4.00;99.90
54158;DHT22;40065;49.894;10.358;2023-04-03T02:42:32;4.00;99.90
54158;DHT22;40065;49.894;10.358;2023-04-03T02:47:34;4.10;99.90
54158;DHT22;40065;49.894;10.358;2023-04-03T02:52:36;4.10;99.90
54158;DHT22;40065;49.894;10.358;2023-04-03T02:57:38;4.10;99.90
54158;DHT22;40065;49.894;10.358;2023-04-03T03:02:40;4.00;99.90
54158;DHT22;40065;49.894;10.358;2023-04-03T03:07:43;4.10;99.90
54158;DHT22;40065;49.894;10.358;2023-04-03T03:12:44;4.10;99.90
54158;DHT22;40065;49.894;10.358;2023-04-03T03:17:46;4.00;99.90
54158;DHT22;40065;49.894;10.358;2023-04-03T03:22:48;4.10;99.90
54158;DHT22;40065;49.894;10.358;2023-04-03T03:27:50;4.00;99.90
54158;DHT22;40065;49.894;10.358;2023-04-03T03:32:52;4.00;99.90
54158;DHT22;40065;49.894;10.358;2023-04-03T03:37:54;4.00;99.90
54158;DHT22;40065;49.894;10.358;2023-04-03T03:42:57;3.90;99.90
54158;DHT22;40065;49.894;10.358;2023-04-03T03:47:59;4.00;99.90
54158;DHT22;40065;49.894;10.358;2023-04-03T03:53:01;3.90;99.90
54158;DHT22;40065;49.894;10.358;2023-04-03T03:58:03;3.90;99.90
54158;DHT22;40065;49.894;10.358;2023-04-03T04:03:06;3.90;99.90
54158;DHT22;40065;49.894;10.358;2023-04-03T04:08:09;3.70;99.90
54158;DHT22;40065;49.894;10.358;2023-04-03T04:13:11;3.60;99.90
54158;DHT22;40065;49.894;10.358;2023-04-03T04:18:13;3.50;99.90
54158;DHT22;40065;49.894;10.358;2023-04-03T04:23:18;3.40;99.90
54158;DHT22;40065;49.894;10.358;2023-04-03T04:28:21;3.20;99.90
54158;DHT22;40065;49.894;10.358;2023-04-03T04:33:26;3.20;99.90
54158;DHT22;40065;49.894;10.358;2023-04-03T04:38:28;3.00;99.90
54158;DHT22;40065;49.894;10.358;2023-04-03T04:43:31;2.90;99.90
54158;DHT22;40065;49.894;10.358;2023-04-03T04:48:34;2.90;99.90
54158;DHT22;40065;49.894;10.358;2023-04-03T04:53:37;2.90;99.90
54158;DHT22;40065;49.894;10.358;2023-04-03T04:58:39;2.90;99.90
54158;DHT22;40065;49.894;10.358;2023-04-03T05:03:42;2.80;99.90
54158;DHT22;40065;49.894;10.358;2023-04-03T05:08:43;2.90;99.90
54158;DHT22;40065;49.894;10.358;2023-04-03T05:13:45;2.90;99.90
54158;DHT22;40065;49.894;10.358;2023-04-03T05:18:47;2.90;99.90
54158;DHT22;40065;49.894;10.358;2023-04-03T05:23:53;2.90;99.90
54158;DHT22;40065;49.894;10.358;2023-04-03T05:28:55;2.90;99.90
54158;DHT22;40065;49.894;10.358;2023-04-03T05:33:58;2.90;99.90
54158;DHT22;40065;49.894;10.358;2023-04-03T05:39:02;3.40;99.90
54158;DHT22;40065;49.894;10.358;2023-04-03T05:44:05;4.40;99.90
54158;DHT22;40065;49.894;10.358;2023-04-03T05:49:09;4.30;99.90
54158;DHT22;40065;49.894;10.358;2023-04-03T05:54:21;5.20;99.90
54158;DHT22;40065;49.894;10.358;2023-04-03T05:59:28;5.30;99.90
54158;DHT22;40065;49.894;10.358;2023-04-03T06:04:32;7.40;99.90
54158;DHT22;40065;49.894;10.358;2023-04-03T06:09:34;9.30;97.90
54158;DHT22;40065;49.894;10.358;2023-04-03T06:14:36;9.00;96.30
54158;DHT22;40065;49.894;10.358;2023-04-03T06:19:38;8.30;97.10
54158;DHT22;40065;49.894;10.358;2023-04-03T06:24:40;9.30;97.00
54158;DHT22;40065;49.894;10.358;2023-04-03T06:29:41;9.60;95.10
54158;DHT22;40065;49.894;10.358;2023-04-03T06:34:43;9.30;94.70
54158;DHT22;40065;49.894;10.358;2023-04-03T06:39:45;9.90;94.80
54158;DHT22;40065;49.894;10.358;2023-04-03T06:44:47;9.10;95.40
54158;DHT22;40065;49.894;10.358;2023-04-03T06:49:49;10.40;93.70
54158;DHT22;40065;49.894;10.358;2023-04-03T06:54:51;10.90;92.30
54158;DHT22;40065;49.894;10.358;2023-04-03T06:59:58;10.10;92.60
54158;DHT22;40065;49.894;10.358;2023-04-03T07:05:00;10.80;92.00
54158;DHT22;40065;49.894;10.358;2023-04-03T07:10:02;11.30;91.00
54158;DHT22;40065;49.894;10.358;2023-04-03T07:15:08;11.80;90.00
54158;DHT22;40065;49.894;10.358;2023-04-03T07:20:10;11.40;90.80
54158;DHT22;40065;49.894;10.358;2023-04-03T07:25:12;12.00;89.00
54158;DHT22;40065;49.894;10.358;2023-04-03T07:30:15;11.10;90.30
54158;DHT22;40065;49.894;10.358;2023-04-03T07:35:17;11.20;90.10
54158;DHT22;40065;49.894;10.358;2023-04-03T07:40:18;12.20;87.90
54158;DHT22;40065;49.894;10.358;2023-04-03T07:45:21;10.80;90.50
54158;DHT22;40065;49.894;10.358;2023-04-03T07:50:24;11.60;86.10
54158;DHT22;40065;49.894;10.358;2023-04-03T07:55:26;11.50;88.60
54158;DHT22;40065;49.894;10.358;2023-04-03T08:00:28;12.60;85.30
54158;DHT22;40065;49.894;10.358;2023-04-03T08:05:31;10.40;87.20
54158;DHT22;40065;49.894;10.358;2023-04-03T08:10:33;10.00;89.40
54158;DHT22;40065;49.894;10.358;2023-04-03T08:15:36;12.60;85.30
54158;DHT22;40065;49.894;10.358;2023-04-03T08:20:39;11.70;83.20
54158;DHT22;40065;49.894;10.358;2023-04-03T08:25:42;10.50;86.50
54158;DHT22;40065;49.894;10.358;2023-04-03T08:30:44;10.70;85.30
54158;DHT22;40065;49.894;10.358;2023-04-03T08:35:47;9.80;89.50
54158;DHT22;40065;49.894;10.358;2023-04-03T08:41:02;9.90;88.40
54158;DHT22;40065;49.894;10.358;2023-04-03T08:46:06;12.10;82.80
54158;DHT22;40065;49.894;10.358;2023-04-03T08:51:14;11.90;83.00
54158;DHT22;40065;49.894;10.358;2023-04-03T08:56:18;10.90;83.50
54158;DHT22;40065;49.894;10.358;2023-04-03T09:01:29;9.20;88.50
54158;DHT22;40065;49.894;10.358;2023-04-03T09:06:33;10.20;86.30
54158;DHT22;40065;49.894;10.358;2023-04-03T09:17:09;11.00;80.50
54158;DHT22;40065;49.894;10.358;2023-04-03T09:22:27;10.30;81.20
54158;DHT22;40065;49.894;10.358;2023-04-03T09:27:33;11.30;78.40
54158;DHT22;40065;49.894;10.358;2023-04-03T09:32:35;12.00;75.00
54158;DHT22;40065;49.894;10.358;2023-04-03T09:37:44;11.50;77.20
54158;DHT22;40065;49.894;10.358;2023-04-03T09:42:46;10.30;78.30
54158;DHT22;40065;49.894;10.358;2023-04-03T09:53:37;8.10;81.30
54158;DHT22;40065;49.894;10.358;2023-04-03T09:58:40;8.30;83.90
54158;DHT22;40065;49.894;10.358;2023-04-03T10:04:15;8.50;79.70
54158;DHT22;40065;49.894;10.358;2023-04-03T10:09:24;9.20;76.70
54158;DHT22;40065;49.894;10.358;2023-04-03T10:14:29;9.20;78.00
54158;DHT22;40065;49.894;10.358;2023-04-03T10:19:36;8.50;79.90
54158;DHT22;40065;49.894;10.358;2023-04-03T10:30:04;10.20;74.50
54158;DHT22;40065;49.894;10.358;2023-04-03T10:40:44;11.40;74.50
54158;DHT22;40065;49.894;10.358;2023-04-03T10:46:16;11.10;74.90
54158;DHT22;40065;49.894;10.358;2023-04-03T10:51:25;10.90;74.00
54158;DHT22;40065;49.894;10.358;2023-04-03T11:01:36;10.00;74.50
54158;DHT22;40065;49.894;10.358;2023-04-03T11:06:48;8.70;74.80
54158;DHT22;40065;49.894;10.358;2023-04-03T11:11:55;10.20;71.50
54158;DHT22;40065;49.894;10.358;2023-04-03T11:17:19;10.40;70.20
54158;DHT22;40065;49.894;10.358;2023-04-03T11:22:43;10.10;71.60
54158;DHT22;40065;49.894;10.358;2023-04-03T11:38:33;10.50;71.40
54158;DHT22;40065;49.894;10.358;2023-04-03T11:43:54;9.80;71.00
54158;DHT22;40065;49.894;10.358;2023-04-03T11:48:57;10.20;71.10
54158;DHT22;40065;49.894;10.358;2023-04-03T11:54:35;10.70;70.90
54158;DHT22;40065;49.894;10.358;2023-04-03T11:59:45;9.80;73.10
54158;DHT22;40065;49.894;10.358;2023-04-03T12:10:28;9.50;68.80
54158;DHT22;40065;49.894;10.358;2023-04-03T12:26:21;9.60;66.10
54158;DHT22;40065;49.894;10.358;2023-04-03T12:31:25;10.20;64.90
54158;DHT22;40065;49.894;10.358;2023-04-03T12:37:35;10.10;67.80
54158;DHT22;40065;49.894;10.358;2023-04-03T12:47:36;10.00;66.40
54158;DHT22;40065;49.894;10.358;2023-04-03T12:52:41;10.00;65.20
54158;DHT22;40065;49.894;10.358;2023-04-03T12:57:45;10.50;65.00
54158;DHT22;40065;49.894;10.358;2023-04-03T13:02:47;9.90;66.60
54158;DHT22;40065;49.894;10.358;2023-04-03T13:07:58;9.60;65.30
54158;DHT22;40065;49.894;10.358;2023-04-03T13:13:09;10.00;65.30
54158;DHT22;40065;49.894;10.358;2023-04-03T13:18:27;10.50;66.20
54158;DHT22;40065;49.894;10.358;2023-04-03T13:23:30;10.90;64.20
54158;DHT22;40065;49.894;10.358;2023-04-03T13:28:33;10.00;67.00
54158;DHT22;40065;49.894;10.358;2023-04-03T13:33:37;10.30;67.20
54158;DHT22;40065;49.894;10.358;2023-04-03T13:38:39;9.70;65.40
54158;DHT22;40065;49.894;10.358;2023-04-03T13:43:41;9.30;65.50
54158;DHT22;40065;49.894;10.358;2023-04-03T13:48:46;9.70;68.70
54158;DHT22;40065;49.894;10.358;2023-04-03T13:54:00;10.00;67.50
54158;DHT22;40065;49.894;10.358;2023-04-03T14:04:24;10.40;63.00
54158;DHT22;40065;49.894;10.358;2023-04-03T14:09:27;10.00;65.50
54158;DHT22;40065;49.894;10.358;2023-04-03T14:14:31;10.40;66.50
54158;DHT22;40065;49.894;10.358;2023-04-03T14:19:34;9.90;66.40
54158;DHT22;40065;49.894;10.358;2023-04-03T14:24:37;9.80;66.20
54158;DHT22;40065;49.894;10.358;2023-04-03T14:29:40;9.20;67.90
54158;DHT22;40065;49.894;10.358;2023-04-03T14:34:42;9.80;65.30
54158;DHT22;40065;49.894;10.358;2023-04-03T14:39:44;9.90;68.10
54158;DHT22;40065;49.894;10.358;2023-04-03T14:44:47;10.40;65.30
54158;DHT22;40065;49.894;10.358;2023-04-03T14:49:49;10.10;65.80
54158;DHT22;40065;49.894;10.358;2023-04-03T14:54:51;9.50;66.50
54158;DHT22;40065;49.894;10.358;2023-04-03T14:59:53;9.60;67.40
54158;DHT22;40065;49.894;10.358;2023-04-03T15:04:55;9.30;65.80
54158;DHT22;40065;49.894;10.358;2023-04-03T15:09:59;9.70;65.00
54158;DHT22;40065;49.894;10.358;2023-04-03T15:15:03;10.00;65.60
54158;DHT22;40065;49.894;10.358;2023-04-03T15:20:16;10.50;64.60
54158;DHT22;40065;49.894;10.358;2023-04-03T15:25:18;9.80;64.50
54158;DHT22;40065;49.894;10.358;2023-04-03T15:30:21;9.40;64.30
54158;DHT22;40065;49.894;10.358;2023-04-03T15:35:23;9.20;63.50
54158;DHT22;40065;49.894;10.358;2023-04-03T15:40:25;9.00;64.80
54158;DHT22;40065;49.894;10.358;2023-04-03T15:45:30;8.90;66.40
54158;DHT22;40065;49.894;10.358;2023-04-03T15:50:33;8.90;68.80
54158;DHT22;40065;49.894;10.358;2023-04-03T15:55:37;8.80;69.80
54158;DHT22;40065;49.894;10.358;2023-04-03T16:00:39;8.00;70.60
54158;DHT22;40065;49.894;10.358;2023-04-03T16:05:42;7.70;71.90
54158;DHT22;40065;49.894;10.358;2023-04-03T16:10:44;8.00;70.00
54158;DHT22;40065;49.894;10.358;2023-04-03T16:15:47;7.70;69.20
54158;DHT22;40065;49.894;10.358;2023-04-03T16:20:50;7.90;70.90
54158;DHT22;40065;49.894;10.358;2023-04-03T16:25:52;8.00;70.80
54158;DHT22;40065;49.894;10.358;2023-04-03T16:30:53;7.60;70.60
54158;DHT22;40065;49.894;10.358;2023-04-03T16:35:55;7.00;72.30
54158;DHT22;40065;49.894;10.358;2023-04-03T16:40:57;6.90;72.80
54158;DHT22;40065;49.894;10.358;2023-04-03T16:46:01;6.90;75.00
54158;DHT22;40065;49.894;10.358;2023-04-03T16:51:04;6.90;72.70
54158;DHT22;40065;49.894;10.358;2023-04-03T16:56:05;7.20;74.10
54158;DHT22;40065;49.894;10.358;2023-04-03T17:01:13;6.80;76.20
54158;DHT22;40065;49.894;10.358;2023-04-03T17:06:18;6.40;74.70
54158;DHT22;40065;49.894;10.358;2023-04-03T17:11:20;6.50;75.70
54158;DHT22;40065;49.894;10.358;2023-04-03T17:16:23;6.40;76.00
54158;DHT22;40065;49.894;10.358;2023-04-03T17:21:25;5.90;77.00
54158;DHT22;40065;49.894;10.358;2023-04-03T17:26:28;6.20;75.30
54158;DHT22;40065;49.894;10.358;2023-04-03T17:31:29;6.00;76.90
54158;DHT22;40065;49.894;10.358;2023-04-03T17:36:32;5.70;77.00
54158;DHT22;40065;49.894;10.358;2023-04-03T17:41:34;5.70;77.20
54158;DHT22;40065;49.894;10.358;2023-04-03T17:46:36;5.60;78.70
54158;DHT22;40065;49.894;10.358;2023-04-03T17:51:38;5.40;79.40
54158;DHT22;40065;49.894;10.358;2023-04-03T17:56:40;5.40;79.50
54158;DHT22;40065;49.894;10.358;2023-04-03T18:01:48;5.30;81.30
54158;DHT22;40065;49.894;10.358;2023-04-03T18:06:51;5.20;80.00
54158;DHT22;40065;49.894;10.358;2023-04-03T18:11:54;5.10;80.20
54158;DHT22;40065;49.894;10.358;2023-04-03T18:16:57;5.00;79.30
54158;DHT22;40065;49.894;10.358;2023-04-03T18:22:02;4.90;79.90
54158;DHT22;40065;49.894;10.358;2023-04-03T18:27:09;4.70;81.30
54158;DHT22;40065;49.894;10.358;2023-04-03T18:32:14;4.70;81.90
54158;DHT22;40065;49.894;10.358;2023-04-03T18:37:16;4.70;82.70
54158;DHT22;40065;49.894;10.358;2023-04-03T18:42:22;4.50;83.20
54158;DHT22;40065;49.894;10.358;2023-04-03T18:47:26;4.40;83.60
54158;DHT22;40065;49.894;10.358;2023-04-03T18:52:29;4.30;84.10
54158;DHT22;40065;49.894;10.358;2023-04-03T18:57:31;4.30;84.80
54158;DHT22;40065;49.894;10.358;2023-04-03T19:02:33;4.20;85.50
54158;DHT22;40065;49.894;10.358;2023-04-03T19:07:37;4.10;85.20
54158;DHT22;40065;49.894;10.358;2023-04-03T19:12:39;4.20;84.30
54158;DHT22;40065;49.894;10.358;2023-04-03T19:17:41;4.10;84.50
54158;DHT22;40065;49.894;10.358;2023-04-03T19:22:43;4.00;85.30
54158;DHT22;40065;49.894;10.358;2023-04-03T19:27:45;3.90;86.10
54158;DHT22;40065;49.894;10.358;2023-04-03T19:32:46;3.80;85.80
54158;DHT22;40065;49.894;10.358;2023-04-03T19:37:48;3.80;85.50
54158;DHT22;40065;49.894;10.358;2023-04-03T19:42:51;3.70;86.50
54158;DHT22;40065;49.894;10.358;2023-04-03T19:47:53;3.60;86.60
54158;DHT22;40065;49.894;10.358;2023-04-03T19:52:55;3.60;86.80
54158;DHT22;40065;49.894;10.358;2023-04-03T19:57:58;3.60;87.00
54158;DHT22;40065;49.894;10.358;2023-04-03T20:03:00;3.50;88.00
54158;DHT22;40065;49.894;10.358;2023-04-03T20:08:02;3.30;88.20
54158;DHT22;40065;49.894;10.358;2023-04-03T20:13:05;3.20;88.20
54158;DHT22;40065;49.894;10.358;2023-04-03T20:18:15;3.40;88.30
54158;DHT22;40065;49.894;10.358;2023-04-03T20:23:21;3.40;87.90
54158;DHT22;40065;49.894;10.358;2023-04-03T20:28:23;3.30;87.60
54158;DHT22;40065;49.894;10.358;2023-04-03T20:33:25;3.20;88.80
54158;DHT22;40065;49.894;10.358;2023-04-03T20:38:27;3.20;88.20
54158;DHT22;40065;49.894;10.358;2023-04-03T20:43:29;3.20;87.50
54158;DHT22;40065;49.894;10.358;2023-04-03T20:48:31;3.20;88.80
54158;DHT22;40065;49.894;10.358;2023-04-03T20:53:32;2.90;90.00
54158;DHT22;40065;49.894;10.358;2023-04-03T20:58:36;2.80;90.70
54158;DHT22;40065;49.894;10.358;2023-04-03T21:03:39;2.70;91.30
54158;DHT22;40065;49.894;10.358;2023-04-03T21:20:01;2.50;92.50
54158;DHT22;40065;49.894;10.358;2023-04-03T21:25:03;2.50;92.70
54158;DHT22;40065;49.894;10.358;2023-04-03T21:30:06;2.40;93.70
54158;DHT22;40065;49.894;10.358;2023-04-03T21:35:08;2.40;92.70
54158;DHT22;40065;49.894;10.358;2023-04-03T21:40:10;2.50;91.70
54158;DHT22;40065;49.894;10.358;2023-04-03T21:45:12;2.60;91.10
54158;DHT22;40065;49.894;10.358;2023-04-03T21:50:16;2.60;91.30
54158;DHT22;40065;49.894;10.358;2023-04-03T21:55:19;2.60;91.50
54158;DHT22;40065;49.894;10.358;2023-04-03T22:00:21;2.60;91.50
54158;DHT22;40065;49.894;10.358;2023-04-03T22:05:24;2.60;91.40
54158;DHT22;40065;49.894;10.358;2023-04-03T22:10:27;2.50;92.00
54158;DHT22;40065;49.894;10.358;2023-04-03T22:15:29;2.40;91.70
54158;DHT22;40065;49.894;10.358;2023-04-03T22:20:30;2.40;92.20
54158;DHT22;40065;49.894;10.358;2023-04-03T22:25:33;2.40;92.00
54158;DHT22;40065;49.894;10.358;2023-04-03T22:30:34;2.50;91.50
54158;DHT22;40065;49.894;10.358;2023-04-03T22:35:47;2.30;92.00
54158;DHT22;40065;49.894;10.358;2023-04-03T22:40:57;2.30;92.20
54158;DHT22;40065;49.894;10.358;2023-04-03T22:46:00;2.20;93.10
54158;DHT22;40065;49.894;10.358;2023-04-03T22:51:04;2.00;93.10
54158;DHT22;40065;49.894;10.358;2023-04-03T22:56:09;2.10;93.00
54158;DHT22;40065;49.894;10.358;2023-04-03T23:01:14;2.00;92.90
54158;DHT22;40065;49.894;10.358;2023-04-03T23:06:16;2.00;92.40
54158;DHT22;40065;49.894;10.358;2023-04-03T23:11:18;1.90;92.30
54158;DHT22;40065;49.894;10.358;2023-04-03T23:16:20;2.10;91.70
54158;DHT22;40065;49.894;10.358;2023-04-03T23:21:22;2.00;91.40
54158;DHT22;40065;49.894;10.358;2023-04-03T23:26:23;2.00;91.90
54158;DHT22;40065;49.894;10.358;2023-04-03T23:31:26;2.00;91.90
54158;DHT22;40065;49.894;10.358;2023-04-03T23:36:27;1.80;92.50
54158;DHT22;40065;49.894;10.358;2023-04-03T23:41:29;1.90;92.30
54158;DHT22;40065;49.894;10.358;2023-04-03T23:46:31;1.80;92.50
54158;DHT22;40065;49.894;10.358;2023-04-03T23:51:33;1.80;92.90
54158;DHT22;40065;49.894;10.358;2023-04-03T23:56:35;1.70;93.50
